Startpagina
METAR-TAF:

METAR-TAF

Vliegvelden :

Mannheim, Duitsland

breedte: 49-28-21N, lengte: 008-30-56E, hoogte: 100 m

Actueel weer

Dit bericht is 43 minuten geleden gemaakt, om 09:20 UTC
Wind 5 kt uit het noordoosten, variërend tussen het noorden en het zuidzuidoosten
Temperatuur 22°C
Vochtigheid 38%
Druk 1026 hPa
Zicht 10 km of meer
geen wolken onder 1500 m en geen cumulonimbus

METAR: EDFM 120920Z 04005KT 350V160 CAVOK 22/07 Q1026

Tijdstip: 12:03 (10:03 UTC)

Verwachting

Dit bericht is 20 uur en het 3 minuten geleden gemaakt, om 14:00 UTC
Verwachting geldig van 11 om 15 UTC tot 11 om 21 UTC
Wind 5 kt uit het noorden
Zicht 10 km of meer
geen wolken onder 1500 m en geen cumulonimbus

TAF: EDFM 111400Z 1115/1121 35005KT CAVOK

Waarnemingen en weersverwachtingen van meer dan 4000 vliegvelden (METAR en TAF).

De beschikbare stations zijn de gele en rode punten op de kaart.

Ga met uw muis naar het station om de naam te zien.

Klik dan om waarnemingen en weersverwachtingen te zien.

kaart wijzigen: klik op de groene knoppen met een zwart kruis om in te zoomen, op de groene knop met een streepje om uit te zoomen of op de groene pijlen voor aangrenzende kaarten.


METAR-TAF: